createdAt,value
2023-02-11T00:02:42.228Z,-0.34
2023-02-11T00:05:48.245Z,-0.32
2023-02-11T00:08:55.228Z,-0.39
2023-02-11T00:12:03.795Z,-0.44
2023-02-11T00:15:13.130Z,-0.59
2023-02-11T00:18:19.618Z,-0.58
2023-02-11T00:21:28.955Z,-0.68
2023-02-11T00:24:34.934Z,-0.65
2023-02-11T00:27:44.363Z,-0.73
2023-02-11T00:30:58.321Z,-0.71
2023-02-11T00:34:05.010Z,-0.76
2023-02-11T00:37:12.230Z,-0.83
2023-02-11T00:40:21.926Z,-0.79
2023-02-11T00:43:30.695Z,-0.78
2023-02-11T00:46:37.997Z,-0.81
2023-02-11T00:49:43.903Z,-0.85
2023-02-11T00:52:50.725Z,-0.81
2023-02-11T00:55:56.770Z,-0.90
2023-02-11T00:59:08.242Z,-0.99
2023-02-11T01:02:14.063Z,-1.17
2023-02-11T01:05:23.904Z,-1.17
2023-02-11T01:08:30.129Z,-1.17
2023-02-11T01:11:36.915Z,-1.25
2023-02-11T01:14:46.347Z,-1.19
2023-02-11T01:17:53.238Z,-1.12
2023-02-11T01:20:59.173Z,-1.16
2023-02-11T01:24:05.807Z,-1.27
2023-02-11T01:27:11.794Z,-1.38
2023-02-11T01:30:23.206Z,-1.33
2023-02-11T01:33:29.106Z,-1.25
2023-02-11T01:36:35.760Z,-1.19
2023-02-11T01:39:41.658Z,-1.14
2023-02-11T01:42:50.919Z,-1.04
2023-02-11T01:46:11.215Z,-0.90
2023-02-11T01:49:24.512Z,-0.92
2023-02-11T01:52:37.916Z,-0.88
2023-02-11T01:55:57.141Z,-0.84
2023-02-11T01:59:14.744Z,-0.90
2023-02-11T02:02:32.801Z,-0.95
2023-02-11T02:05:52.183Z,-0.93
2023-02-11T02:09:08.902Z,-0.95
2023-02-11T02:12:14.961Z,-0.98
2023-02-11T02:15:27.502Z,-1.08
2023-02-11T02:18:51.728Z,-1.03
2023-02-11T02:23:05.308Z,-0.93
2023-02-11T02:26:49.792Z,-0.77
2023-02-11T02:30:36.879Z,-0.68
2023-02-11T02:33:58.542Z,-0.59
2023-02-11T02:37:18.222Z,-0.65
2023-02-11T02:40:34.442Z,-0.65
2023-02-11T02:43:47.703Z,-0.54
2023-02-11T02:46:53.515Z,-0.45
2023-02-11T02:50:03.588Z,-0.33
2023-02-11T02:53:35.243Z,-0.21
2023-02-11T02:56:54.337Z,-0.12
2023-02-11T03:00:20.845Z,0.02
2023-02-11T03:03:45.244Z,0.12
2023-02-11T03:07:06.881Z,0.17
2023-02-11T03:10:24.520Z,0.22
2023-02-11T03:13:37.444Z,0.28
2023-02-11T03:16:46.701Z,0.30
2023-02-11T03:19:55.107Z,0.27
2023-02-11T03:23:13.952Z,0.31
2023-02-11T03:26:28.949Z,0.31
2023-02-11T03:29:46.691Z,0.26
2023-02-11T03:33:00.983Z,0.18
2023-02-11T03:36:16.064Z,0.22
2023-02-11T03:39:32.567Z,0.21
2023-02-11T03:42:46.889Z,0.17
2023-02-11T03:45:58.764Z,0.10
2023-02-11T03:49:12.648Z,0.00
2023-02-11T03:52:23.062Z,-0.09
2023-02-11T03:55:39.031Z,-0.26
2023-02-11T03:58:47.073Z,-0.28
2023-02-11T04:01:54.268Z,-0.27
2023-02-11T04:05:00.543Z,-0.39
2023-02-11T04:08:08.765Z,-0.44
2023-02-11T04:11:17.182Z,-0.42
2023-02-11T04:14:26.921Z,-0.55
2023-02-11T04:17:32.946Z,-0.48
2023-02-11T04:20:39.592Z,-0.64
2023-02-11T04:23:45.386Z,-0.59
2023-02-11T04:26:54.820Z,-0.55
2023-02-11T04:30:00.617Z,-0.56
2023-02-11T04:33:07.414Z,-0.57
2023-02-11T04:36:13.255Z,-0.48
2023-02-11T04:39:20.415Z,-0.31
2023-02-11T04:42:28.925Z,-0.30
2023-02-11T04:45:36.323Z,-0.36
2023-02-11T04:48:42.195Z,-0.35
2023-02-11T04:51:49.655Z,-0.31
2023-02-11T04:54:55.522Z,-0.27
2023-02-11T04:58:04.780Z,-0.34
2023-02-11T05:01:11.288Z,-0.30
2023-02-11T05:04:17.949Z,-0.22
2023-02-11T05:07:23.766Z,-0.23
2023-02-11T05:10:30.316Z,-0.25
2023-02-11T05:13:38.775Z,-0.18
2023-02-11T05:16:45.506Z,-0.07
2023-02-11T05:19:51.245Z,-0.03
2023-02-11T05:22:57.799Z,0.07
2023-02-11T05:26:03.772Z,0.07
2023-02-11T05:29:12.952Z,-0.00
2023-02-11T05:32:18.809Z,0.08
2023-02-11T05:35:26.368Z,0.09
2023-02-11T05:38:32.521Z,0.20
2023-02-11T05:41:39.162Z,0.27
2023-02-11T05:44:50.257Z,0.35
2023-02-11T05:47:57.240Z,0.44
2023-02-11T05:51:02.971Z,0.41
2023-02-11T05:54:09.822Z,0.42
2023-02-11T05:57:15.868Z,0.50
2023-02-11T06:00:25.719Z,0.47
2023-02-11T06:03:31.555Z,0.44
2023-02-11T06:06:38.414Z,0.41
2023-02-11T06:09:44.369Z,0.36
2023-02-11T06:12:51.057Z,0.33
2023-02-11T06:16:06.046Z,0.34
2023-02-11T06:19:12.716Z,0.28
2023-02-11T06:22:18.736Z,0.22
2023-02-11T06:25:25.357Z,0.35
2023-02-11T06:28:32.281Z,0.38
2023-02-11T06:31:42.119Z,0.39
2023-02-11T06:34:48.203Z,0.46
2023-02-11T06:37:54.884Z,0.51
2023-02-11T06:41:00.711Z,0.50
2023-02-11T06:44:07.546Z,0.46
2023-02-11T06:47:16.840Z,0.44
2023-02-11T06:50:23.730Z,0.48
2023-02-11T06:53:29.550Z,0.54
2023-02-11T06:56:37.558Z,0.54
2023-02-11T06:59:43.971Z,0.49
2023-02-11T07:02:53.216Z,0.43
2023-02-11T07:05:58.983Z,0.43
2023-02-11T07:09:05.629Z,0.41
2023-02-11T07:12:13.476Z,0.28
2023-02-11T07:15:20.369Z,0.18
2023-02-11T07:18:28.690Z,0.26
2023-02-11T07:21:35.295Z,0.27
2023-02-11T07:24:41.036Z,0.29
2023-02-11T07:27:50.287Z,0.35
2023-02-11T07:30:56.028Z,0.29
2023-02-11T07:34:07.032Z,0.27
2023-02-11T07:37:12.910Z,0.35
2023-02-11T07:40:19.870Z,0.48
2023-02-11T07:43:25.680Z,0.68
2023-02-11T07:46:32.548Z,0.93
2023-02-11T07:49:41.103Z,1.32
2023-02-11T07:52:47.710Z,1.67
2023-02-11T07:55:53.648Z,1.99
2023-02-11T07:59:05.166Z,2.47
2023-02-11T08:02:12.743Z,2.59
2023-02-11T08:05:22.134Z,2.41
2023-02-11T08:08:30.413Z,2.35
2023-02-11T08:11:39.343Z,2.28
2023-02-11T08:14:45.100Z,2.19
2023-02-11T08:17:51.616Z,2.17
2023-02-11T08:21:08.273Z,2.35
2023-02-11T08:24:15.575Z,2.41
2023-02-11T08:27:21.455Z,2.32
2023-02-11T08:30:28.243Z,2.30
2023-02-11T08:33:34.120Z,2.27
2023-02-11T08:36:45.777Z,2.08
2023-02-11T08:39:51.731Z,2.09
2023-02-11T08:42:59.592Z,2.04
2023-02-11T08:46:06.837Z,2.08
2023-02-11T08:49:14.624Z,2.06
2023-02-11T08:52:23.077Z,2.13
2023-02-11T08:55:29.854Z,2.25
2023-02-11T08:58:38.030Z,2.35
2023-02-11T09:01:44.958Z,2.33
2023-02-11T09:04:53.516Z,2.32
2023-02-11T09:08:06.042Z,2.30
2023-02-11T09:11:13.357Z,2.22
2023-02-11T09:14:27.187Z,2.30
2023-02-11T09:17:33.076Z,2.14
2023-02-11T09:20:39.936Z,2.11
2023-02-11T09:23:48.662Z,2.18
2023-02-11T09:26:55.438Z,2.30
2023-02-11T09:30:01.318Z,2.37
2023-02-11T09:33:08.100Z,2.28
2023-02-11T09:36:13.892Z,2.32
2023-02-11T09:39:23.517Z,2.28
2023-02-11T09:42:49.918Z,2.37
2023-02-11T09:45:59.800Z,2.46
2023-02-11T09:49:09.387Z,2.61
2023-02-11T09:52:38.761Z,2.71
2023-02-11T09:55:55.937Z,2.75
2023-02-11T09:59:05.257Z,2.76
2023-02-11T10:02:26.919Z,2.90
2023-02-11T10:06:06.715Z,2.92
2023-02-11T10:09:48.526Z,3.13
2023-02-11T10:13:27.748Z,3.28
2023-02-11T10:16:54.404Z,3.33
2023-02-11T10:20:24.908Z,3.37
2023-02-11T10:23:42.989Z,3.52
2023-02-11T10:26:50.218Z,3.52
2023-02-11T10:30:07.144Z,3.48
2023-02-11T10:33:29.799Z,3.45
2023-02-11T10:36:40.285Z,3.42
2023-02-11T10:39:47.173Z,3.34
2023-02-11T10:42:56.187Z,3.47
2023-02-11T10:46:09.176Z,3.63
2023-02-11T10:49:40.826Z,3.88
2023-02-11T10:52:47.367Z,4.54
2023-02-11T10:55:58.176Z,5.18
2023-02-11T10:59:10.552Z,6.08
2023-02-11T11:02:42.074Z,7.00
2023-02-11T11:05:58.726Z,7.79
2023-02-11T11:09:33.053Z,7.94
2023-02-11T11:12:51.644Z,7.55
2023-02-11T11:16:25.029Z,6.88
2023-02-11T11:19:36.873Z,6.43
2023-02-11T11:22:45.716Z,5.98
2023-02-11T11:26:08.420Z,5.47
2023-02-11T11:29:23.497Z,4.98
2023-02-11T11:32:37.290Z,4.81
2023-02-11T11:36:04.237Z,4.60
2023-02-11T11:39:26.414Z,4.42
2023-02-11T11:42:35.094Z,4.38
2023-02-11T11:45:42.790Z,4.25
2023-02-11T11:48:54.752Z,4.25
2023-02-11T11:52:30.628Z,4.10
2023-02-11T11:55:46.801Z,3.98
2023-02-11T11:58:54.574Z,3.91
2023-02-11T12:03:20.612Z,3.76
2023-02-11T12:06:59.575Z,3.85
2023-02-11T12:10:47.208Z,3.82
2023-02-11T12:14:18.916Z,3.83
2023-02-11T12:17:51.931Z,3.78
2023-02-11T12:21:29.580Z,3.87
2023-02-11T12:25:07.876Z,4.00
2023-02-11T12:28:40.282Z,3.95
2023-02-11T12:32:08.286Z,3.90
2023-02-11T12:35:43.586Z,4.02
2023-02-11T12:39:17.621Z,4.08
2023-02-11T12:43:19.989Z,4.08
2023-02-11T12:46:45.188Z,4.05
2023-02-11T12:50:14.228Z,3.96
2023-02-11T12:54:07.467Z,3.84
2023-02-11T12:57:26.160Z,3.71
2023-02-11T13:00:48.942Z,3.55
2023-02-11T13:04:12.055Z,3.37
2023-02-11T13:07:27.026Z,3.38
2023-02-11T13:10:41.150Z,3.42
2023-02-11T13:13:58.940Z,3.43
2023-02-11T13:17:20.921Z,3.53
2023-02-11T13:20:45.744Z,3.53
2023-02-11T13:24:07.571Z,3.53
2023-02-11T13:27:32.460Z,3.40
2023-02-11T13:30:47.713Z,3.42
2023-02-11T13:33:53.828Z,3.40
2023-02-11T13:37:03.241Z,3.36
2023-02-11T13:40:25.881Z,3.35
2023-02-11T13:43:37.392Z,3.30
2023-02-11T13:47:02.280Z,3.19
2023-02-11T13:50:24.925Z,3.17
2023-02-11T13:53:53.415Z,3.12
2023-02-11T13:57:42.819Z,3.05
2023-02-11T14:00:53.005Z,3.15
2023-02-11T14:04:39.453Z,3.18
2023-02-11T14:08:30.186Z,3.15
2023-02-11T14:11:58.384Z,3.14
2023-02-11T14:15:41.548Z,3.18
2023-02-11T14:19:06.469Z,3.12
2023-02-11T14:22:23.862Z,3.27
2023-02-11T14:25:32.277Z,3.22
2023-02-11T14:28:47.067Z,3.22
2023-02-11T14:32:11.015Z,3.15
2023-02-11T14:35:35.416Z,3.08
2023-02-11T14:39:15.332Z,2.68
2023-02-11T14:42:31.243Z,3.03
2023-02-11T14:45:51.451Z,2.63
2023-02-11T14:49:04.997Z,2.82
2023-02-11T14:52:30.529Z,2.92
2023-02-11T14:55:43.063Z,2.76
2023-02-11T14:58:52.253Z,2.82
2023-02-11T15:02:01.286Z,2.83
2023-02-11T15:05:21.364Z,2.86
2023-02-11T15:08:27.898Z,2.83
2023-02-11T15:11:41.652Z,2.79
2023-02-11T15:14:55.396Z,2.69
2023-02-11T15:18:09.913Z,2.65
2023-02-11T15:21:16.553Z,2.72
2023-02-11T15:24:31.292Z,2.80
2023-02-11T15:27:44.398Z,2.81
2023-02-11T15:30:59.843Z,2.83
2023-02-11T15:34:14.979Z,2.82
2023-02-11T15:37:26.997Z,2.80
2023-02-11T15:40:36.214Z,2.88
2023-02-11T15:43:49.356Z,2.89
2023-02-11T15:46:55.533Z,2.93
2023-02-11T15:50:06.089Z,2.90
2023-02-11T15:53:28.870Z,2.84
2023-02-11T15:56:45.380Z,2.78
2023-02-11T15:59:56.949Z,2.73
2023-02-11T16:03:03.610Z,2.72
2023-02-11T16:06:25.145Z,2.56
2023-02-11T16:09:40.080Z,2.41
2023-02-11T16:13:14.193Z,2.35
2023-02-11T16:16:27.285Z,2.30
2023-02-11T16:19:36.315Z,2.30
2023-02-11T16:22:50.511Z,2.30
2023-02-11T16:26:05.721Z,2.23
2023-02-11T16:29:20.331Z,2.15
2023-02-11T16:32:28.919Z,2.15
2023-02-11T16:35:35.916Z,2.09
2023-02-11T16:38:44.449Z,2.06
2023-02-11T16:41:52.767Z,1.98
2023-02-11T16:45:00.223Z,1.97
2023-02-11T16:48:10.691Z,2.03
2023-02-11T16:51:16.808Z,2.03
2023-02-11T16:54:27.074Z,2.05
2023-02-11T16:57:33.965Z,2.09
2023-02-11T17:00:41.260Z,2.07
2023-02-11T17:03:47.266Z,2.09
2023-02-11T17:06:55.933Z,2.06
2023-02-11T17:10:05.928Z,2.13
2023-02-11T17:13:12.489Z,2.21
2023-02-11T17:16:26.557Z,2.24
2023-02-11T17:19:33.664Z,2.28
2023-02-11T17:22:39.743Z,2.30
2023-02-11T17:25:49.441Z,2.38
2023-02-11T17:28:56.306Z,2.32
2023-02-11T17:32:03.246Z,2.35
2023-02-11T17:35:10.700Z,2.41
2023-02-11T17:38:17.507Z,2.46
2023-02-11T17:41:26.073Z,2.55
2023-02-11T17:44:32.575Z,2.57
2023-02-11T17:47:38.928Z,2.56
2023-02-11T17:50:45.765Z,2.52
2023-02-11T17:53:51.893Z,2.53
2023-02-11T17:57:01.297Z,2.49
2023-02-11T18:00:09.013Z,2.47
2023-02-11T18:03:21.621Z,2.50
2023-02-11T18:06:29.949Z,2.52
2023-02-11T18:09:40.976Z,2.58
2023-02-11T18:12:49.643Z,2.60
2023-02-11T18:15:56.407Z,2.61
2023-02-11T18:19:02.567Z,2.67
2023-02-11T18:22:10.033Z,2.75
2023-02-11T18:25:19.093Z,2.80
2023-02-11T18:28:28.429Z,2.78
2023-02-11T18:31:35.521Z,2.96
2023-02-11T18:34:43.481Z,2.98
2023-02-11T18:37:49.934Z,2.99
2023-02-11T18:41:00.327Z,3.08
2023-02-11T18:44:08.963Z,3.21
2023-02-11T18:47:15.757Z,3.20
2023-02-11T18:50:24.750Z,3.16
2023-02-11T18:53:31.563Z,3.29
2023-02-11T18:56:46.977Z,3.42
2023-02-11T18:59:59.163Z,3.42
2023-02-11T19:03:06.166Z,3.45
2023-02-11T19:06:20.316Z,3.48
2023-02-11T19:09:28.396Z,3.56
2023-02-11T19:12:35.838Z,3.57
2023-02-11T19:15:48.729Z,3.68
2023-02-11T19:18:55.494Z,3.73
2023-02-11T19:22:09.185Z,3.59
2023-02-11T19:25:17.417Z,3.65
2023-02-11T19:28:26.328Z,3.73
2023-02-11T19:31:36.649Z,3.74
2023-02-11T19:34:44.105Z,3.76
2023-02-11T19:37:50.802Z,3.82
2023-02-11T19:40:59.816Z,3.81
2023-02-11T19:44:08.619Z,3.83
2023-02-11T19:47:18.241Z,3.90
2023-02-11T19:50:25.317Z,3.87
2023-02-11T19:53:31.393Z,3.89
2023-02-11T19:56:40.396Z,3.96
2023-02-11T19:59:46.334Z,3.99
2023-02-11T20:02:55.953Z,4.04
2023-02-11T20:06:02.025Z,4.07
2023-02-11T20:09:12.353Z,4.06
2023-02-11T20:12:25.755Z,4.05
2023-02-11T20:15:32.443Z,4.18
2023-02-11T20:18:41.501Z,4.15
2023-02-11T20:21:56.231Z,4.23
2023-02-11T20:25:02.195Z,4.27
2023-02-11T20:28:08.801Z,4.31
2023-02-11T20:31:17.326Z,4.36
2023-02-11T20:34:26.869Z,4.38
2023-02-11T20:37:33.164Z,4.36
2023-02-11T20:40:39.965Z,4.36
2023-02-11T20:43:49.673Z,4.40
2023-02-11T20:46:57.384Z,4.39
2023-02-11T20:50:05.981Z,4.37
2023-02-11T20:53:15.623Z,4.39
2023-02-11T20:56:26.242Z,4.43
2023-02-11T20:59:33.470Z,4.39
2023-02-11T21:02:39.540Z,4.36
2023-02-11T21:05:51.833Z,4.33
2023-02-11T21:09:00.771Z,4.37
2023-02-11T21:12:08.945Z,4.35
2023-02-11T21:15:16.997Z,4.30
2023-02-11T21:18:23.904Z,4.33
2023-02-11T21:21:33.526Z,4.33
2023-02-11T21:24:40.242Z,4.38
2023-02-11T21:27:46.263Z,4.37
2023-02-11T21:30:54.773Z,4.33
2023-02-11T21:34:02.361Z,4.32
2023-02-11T21:37:11.929Z,4.32
2023-02-11T21:40:17.779Z,4.29
2023-02-11T21:43:25.788Z,4.28
2023-02-11T21:46:32.459Z,4.22
2023-02-11T21:49:42.298Z,4.20
2023-02-11T21:52:51.142Z,4.17
2023-02-11T21:56:07.300Z,4.22
2023-02-11T21:59:17.988Z,4.22
2023-02-11T22:02:24.539Z,4.21
2023-02-11T22:05:30.736Z,4.26
2023-02-11T22:08:40.808Z,4.34
2023-02-11T22:11:46.937Z,4.41
2023-02-11T22:14:55.757Z,4.47
2023-02-11T22:18:01.557Z,4.47
2023-02-11T22:21:12.836Z,4.47
2023-02-11T22:24:21.353Z,4.52
2023-02-11T22:27:29.230Z,4.58
2023-02-11T22:30:35.145Z,4.56
2023-02-11T22:33:41.997Z,4.61
2023-02-11T22:36:49.592Z,4.66
2023-02-11T22:39:59.137Z,4.67
2023-02-11T22:43:05.061Z,4.62
2023-02-11T22:46:12.630Z,4.67
2023-02-11T22:49:21.246Z,4.67
2023-02-11T22:52:28.527Z,4.66
2023-02-11T22:55:41.253Z,4.74
2023-02-11T22:58:48.029Z,4.78
2023-02-11T23:01:55.947Z,4.84
2023-02-11T23:05:03.768Z,4.87
2023-02-11T23:08:10.761Z,4.88
2023-02-11T23:11:23.985Z,4.88
2023-02-11T23:14:30.136Z,4.93
2023-02-11T23:17:37.075Z,4.92
2023-02-11T23:20:46.687Z,4.93
2023-02-11T23:24:01.445Z,4.90
2023-02-11T23:27:13.291Z,4.93
2023-02-11T23:30:22.054Z,4.90
2023-02-11T23:33:27.838Z,4.89
2023-02-11T23:36:35.025Z,4.92
2023-02-11T23:39:41.137Z,4.89
2023-02-11T23:42:52.507Z,5.02
2023-02-11T23:45:58.468Z,5.03
2023-02-11T23:49:05.412Z,5.10
2023-02-11T23:52:11.416Z,5.12
2023-02-11T23:55:18.234Z,5.10
2023-02-11T23:58:27.029Z,5.10
